Cattleya Ace — ZGBV6 — position and weather

sailwx.info

Track history (hours):
 
Tides and Currents Weather Stations Pressure Air Temp Water Temp Dewpoint Dewpoint Depression Visibility Wind Speed Wind Dir Waves Ship Positions

Cattleya Ace

Last reported at 2018-May-20 13:40 UTC. Time now 2018-May-20 21:16 UTC.
Position N 37°14' W 001°03'.

Length 199 m; draft 9.5 m.

Type: Cargo ship. MMSI: 319885000.

Date/timePositionNaut miles runAvg speedWind from/ knotsBaromVisibWave heightAir tempDewpointWater temp
2018-May-20 13:40N 37°14' W 001°03'317.1
2018-May-20 13:30N 37°16' W 000°60'917.1
2018-May-20 13:00N 37°21' W 000°52'817.0
2018-May-20 12:30N 37°27' W 000°43'817.0
2018-May-20 12:00N 37°33' W 000°36'816.2
2018-May-20 11:30N 37°39' W 000°29'816.2
2018-May-20 11:00N 37°46' W 000°24'816.6
2018-May-20 10:30N 37°53' W 000°18'816.8
2018-May-20 10:00N 37°60' W 000°12'19017.5
2018-May-19 23:09N 40°45' E 001°49'317.1
2018-May-19 22:57N 40°48' E 001°51'817.3
2018-May-19 22:30N 40°55' E 001°55'917.6
2018-May-19 22:00N 41°03' E 002°01'917.5
2018-May-19 21:30N 41°10' E 002°07'815.9
2018-May-19 21:00N 41°18' E 002°10'3 5.3
2018-May-19 20:30N 41°20' E 002°09'0 0.7
2018-May-19 20:00N 41°20' E 002°09'0 0.0
2018-May-19 19:30N 41°20' E 002°09'0 0.0
2018-May-19 19:00N 41°20' E 002°09'0 0.0
2018-May-19 18:27N 41°20' E 002°09'0 0.0
2018-May-19 18:00N 41°20' E 002°09'0 0.0
2018-May-19 17:30N 41°20' E 002°09'0 0.0
2018-May-19 17:00N 41°20' E 002°09'0 0.0
2018-May-19 16:30N 41°20' E 002°09'0 0.0
2018-May-19 16:00N 41°20' E 002°09'0 0.0
2018-May-19 15:30N 41°20' E 002°09'0 0.0
2018-May-19 15:00N 41°20' E 002°09'0 0.0
2018-May-19 14:30N 41°20' E 002°09'0 0.0
2018-May-19 13:57N 41°20' E 002°09'0 0.0
2018-May-19 13:30N 41°20' E 002°09'0 0.0
2018-May-19 13:00N 41°20' E 002°09'0 0.0
2018-May-19 12:30N 41°20' E 002°09'0 0.0
2018-May-19 12:00N 41°20' E 002°09'0 0.0
2018-May-19 11:30N 41°20' E 002°09'0 0.0
2018-May-19 11:00N 41°20' E 002°09'0 0.0
2018-May-19 10:30N 41°20' E 002°09'0 0.0
2018-May-19 10:00N 41°20' E 002°09'0 0.0
2018-May-19 09:30N 41°20' E 002°09'0 0.0
2018-May-19 09:00N 41°20' E 002°09'0 0.0
2018-May-19 08:30N 41°20' E 002°09'0 0.0
2018-May-19 08:01N 41°20' E 002°09'1 2.1
2018-May-19 07:30N 41°20' E 002°10'511.0
2018-May-19 07:01N 41°15' E 002°11'3 6.6
2018-May-19 06:31N 41°12' E 002°11'0 0.5
2018-May-19 06:01N 41°12' E 002°11'0 0.9
2018-May-19 05:31N 41°12' E 002°12'2 3.7
2018-May-19 05:01N 41°10' E 002°12'3 5.6
2018-May-19 04:30N 41°07' E 002°13'2 3.3
2018-May-19 04:01N 41°05' E 002°13'1 1.4
2018-May-19 03:31N 41°06' E 002°14'1 1.3
2018-May-19 03:01N 41°07' E 002°14'1 1.2
2018-May-19 02:31N 41°07' E 002°14'1 1.5
2018-May-19 02:00N 41°08' E 002°15'1 1.3
2018-May-19 01:30N 41°08' E 002°15'1 1.4
2018-May-19 01:01N 41°09' E 002°15'1 1.3
2018-May-19 00:30N 41°10' E 002°15'1 1.2
2018-May-19 00:00N 41°10' E 002°15'1 1.1
2018-May-18 23:30N 41°11' E 002°15'0 0.9
2018-May-18 23:00N 41°11' E 002°15'0 0.6
2018-May-18 22:31N 41°12' E 002°15'0 0.4
2018-May-18 22:00N 41°12' E 002°15'0 0.2
2018-May-18 21:30N 41°12' E 002°15'1 2.2
2018-May-18 21:01N 41°12' E 002°16'713.2
2018-May-18 20:31N 41°17' E 002°22'918.0
2018-May-18 20:01N 41°20' E 002°33'917.9
2018-May-18 19:30N 41°23' E 002°45'1017.9
2018-May-18 18:57N 41°27' E 002°57'22118.3
2018-May-18 06:52N 42°49' E 007°33'1718.6
2018-May-18 05:58N 42°56' E 007°55'918.9
2018-May-18 05:31N 42°59' E 008°06'918.8
2018-May-18 05:01N 43°02' E 008°18'918.5
2018-May-18 04:30N 43°05' E 008°30'918.2
2018-May-18 04:00N 43°08' E 008°41'918.0
2018-May-18 03:31N 43°10' E 008°53'917.8
2018-May-18 03:00N 43°13' E 009°05'918.0
2018-May-18 02:31N 43°15' E 009°17'917.8
2018-May-18 02:00N 43°18' E 009°29'918.1
2018-May-18 01:31N 43°19' E 009°41'918.5
2018-May-18 01:01N 43°19' E 009°54'816.6
2018-May-18 00:31N 43°23' E 010°04'917.2
2018-May-18 00:01N 43°29' E 010°11'511.0
2018-May-17 23:31N 43°33' E 010°17'1 1.8
2018-May-17 22:59N 43°33' E 010°18'0 0.0
2018-May-17 22:29N 43°33' E 010°18'0 0.0
2018-May-17 21:59N 43°33' E 010°18'0 0.0
2018-May-17 21:29N 43°33' E 010°18'0 0.0
2018-May-17 20:59N 43°33' E 010°18'0 0.0
2018-May-17 20:29N 43°33' E 010°18'0 0.0
2018-May-17 19:47N 43°33' E 010°18'0 0.0
2018-May-17 19:29N 43°33' E 010°18'0 0.0
2018-May-17 18:59N 43°33' E 010°18'0 0.0
2018-May-17 18:29N 43°33' E 010°18'0 0.0
2018-May-17 17:59N 43°33' E 010°18'0 0.0
2018-May-17 17:29N 43°33' E 010°18'0 0.0
2018-May-17 16:56N 43°33' E 010°18'0 0.0
2018-May-17 16:26N 43°33' E 010°18'0 0.0
2018-May-17 15:59N 43°33' E 010°18'0 0.0
2018-May-17 15:29N 43°33' E 010°18'0 0.0
2018-May-17 14:53N 43°33' E 010°18'0 0.0
2018-May-17 14:26N 43°33' E 010°18'0 0.0
2018-May-17 13:59N 43°33' E 010°18'0 0.0
2018-May-17 13:29N 43°33' E 010°18'0 0.0
2018-May-17 12:59N 43°33' E 010°18'0 0.4
2018-May-17 12:30N 43°33' E 010°18'3 7.1
2018-May-17 12:00N 43°30' E 010°15'1 1.9
2018-May-17 11:29N 43°29' E 010°16'0 0.0
2018-May-17 10:58N 43°29' E 010°16'0 0.0
2018-May-17 10:26N 43°29' E 010°16'0 0.0
2018-May-17 09:52N 43°29' E 010°16'0 0.0
2018-May-17 09:29N 43°29' E 010°16'0 0.0
2018-May-17 08:55N 43°29' E 010°16'0 0.0
2018-May-17 08:29N 43°29' E 010°16'0 0.0
2018-May-17 07:59N 43°29' E 010°16'0 0.0
2018-May-17 07:28N 43°29' E 010°16'0 0.0
2018-May-17 06:59N 43°29' E 010°16'0 0.0
2018-May-17 06:25N 43°29' E 010°16'0 0.0
2018-May-17 05:59N 43°29' E 010°16'0 0.0
2018-May-17 05:29N 43°29' E 010°16'0 0.0
2018-May-17 04:59N 43°29' E 010°16'0 0.0
2018-May-17 04:23N 43°29' E 010°16'0 0.0
2018-May-17 03:58N 43°29' E 010°16'0 0.0
2018-May-17 03:28N 43°29' E 010°16'0 0.1
2018-May-17 02:58N 43°29' E 010°16'0 0.0
2018-May-17 02:28N 43°29' E 010°16'0 0.0
2018-May-17 01:58N 43°29' E 010°16'0 0.0
2018-May-17 01:28N 43°29' E 010°16'0 0.0
2018-May-17 00:59N 43°29' E 010°16'0 0.0
2018-May-17 00:29N 43°29' E 010°16'0 0.0
2018-May-16 23:58N 43°29' E 010°16'0 0.0
2018-May-16 23:29N 43°29' E 010°16'0 0.0
2018-May-16 22:59N 43°29' E 010°16'0 0.0
2018-May-16 22:29N 43°29' E 010°16'0 0.0
2018-May-16 21:58N 43°29' E 010°16'0 0.0
2018-May-16 21:28N 43°29' E 010°16'0 0.0
2018-May-16 20:58N 43°29' E 010°16'0 0.0
2018-May-16 20:29N 43°29' E 010°16'0 0.0
2018-May-16 19:58N 43°29' E 010°16'0 0.0
2018-May-16 19:28N 43°29' E 010°16'0 0.0
2018-May-16 18:59N 43°29' E 010°16'0 0.0
2018-May-16 18:28N 43°29' E 010°16'0 0.0
2018-May-16 17:58N 43°29' E 010°16'0 0.0
2018-May-16 17:28N 43°29' E 010°16'0 0.0
2018-May-16 16:59N 43°29' E 010°16'0 0.0
2018-May-16 16:25N 43°29' E 010°16'0 0.0
2018-May-16 15:55N 43°29' E 010°16'0 0.0
2018-May-16 15:29N 43°29' E 010°16'0 0.0
2018-May-16 14:58N 43°29' E 010°16'0 0.0
2018-May-16 14:29N 43°29' E 010°16'0 0.0
2018-May-16 13:59N 43°29' E 010°16'0 0.0
2018-May-16 13:28N 43°29' E 010°16'0 0.0
2018-May-16 12:58N 43°29' E 010°16'0 0.0
2018-May-16 12:29N 43°29' E 010°16'0 0.0
2018-May-16 11:55N 43°29' E 010°16'0 0.0
2018-May-16 11:29N 43°29' E 010°16'0 0.0
2018-May-16 10:58N 43°29' E 010°16'0 0.0
2018-May-16 10:28N 43°29' E 010°16'0 0.0
2018-May-16 09:58N 43°29' E 010°16'0 0.0
2018-May-16 09:28N 43°29' E 010°16'0 0.0
2018-May-16 08:58N 43°29' E 010°16'0 0.1
2018-May-16 08:29N 43°29' E 010°16'1 1.4
2018-May-16 08:01N 43°29' E 010°15'3 6.4
2018-May-16 07:30N 43°26' E 010°13'713.2
2018-May-16 07:01N 43°20' E 010°09'612.9
2018-May-16 06:31N 43°14' E 010°06'612.8
2018-May-16 06:00N 43°08' E 010°04'612.9
2018-May-16 05:30N 43°02' E 010°01'35214.6
2018-May-15 05:24N 37°26' E 012°20'714.8
2018-May-15 04:54N 37°21' E 012°27'3315.5
2018-May-15 02:48N 37°07' E 013°03'515.1
2018-May-15 02:28N 37°04' E 013°09'715.2
2018-May-15 02:00N 37°01' E 013°17'815.3
2018-May-15 01:30N 36°57' E 013°25'1215.1
2018-May-15 00:42N 36°51' E 013°39'315.4
2018-May-15 00:30N 36°50' E 013°42'815.4
2018-May-14 23:59N 36°46' E 013°51'715.3
2018-May-14 23:30N 36°43' E 013°59'815.0
2018-May-14 23:00N 36°39' E 014°07'714.9
2018-May-14 22:30N 36°36' E 014°15'814.9
2018-May-14 21:58N 36°32' E 014°24'715.1
2018-May-14 21:30N 36°29' E 014°32'815.1
2018-May-14 21:00N 36°25' E 014°40'715.0
2018-May-14 20:30N 36°23' E 014°49'714.6
2018-May-14 20:00N 36°21' E 014°58'714.0
2018-May-14 19:30N 36°19' E 015°06'2514.7
2018-May-14 17:47N 36°11' E 015°36'515.0
2018-May-14 17:28N 36°10' E 015°42'715.0
2018-May-14 17:00N 36°08' E 015°50'714.9
2018-May-14 16:30N 36°06' E 015°59'815.2
2018-May-14 16:00N 36°03' E 016°08'  
Track history (hours):
 
Tides and Currents Weather Stations Pressure Air Temp Water Temp Dewpoint Dewpoint Depression Visibility Wind Speed Wind Dir Waves Ship Positions

Cattleya Ace

Last reported at 2018-May-20 13:40 UTC. Time now 2018-May-20 21:16 UTC.
Position N 37°14' W 001°03'.

Length 199 m; draft 9.5 m.

Type: Cargo ship. MMSI: 319885000.

Date/timePositionNaut miles runAvg speedWind from/ knotsBaromVisibWave heightAir tempDewpointWater temp
2018-May-20 13:40N 37°14' W 001°03'317.1
2018-May-20 13:30N 37°16' W 000°60'917.1
2018-May-20 13:00N 37°21' W 000°52'817.0
2018-May-20 12:30N 37°27' W 000°43'817.0
2018-May-20 12:00N 37°33' W 000°36'816.2
2018-May-20 11:30N 37°39' W 000°29'816.2
2018-May-20 11:00N 37°46' W 000°24'816.6
2018-May-20 10:30N 37°53' W 000°18'816.8
2018-May-20 10:00N 37°60' W 000°12'19017.5
2018-May-19 23:09N 40°45' E 001°49'317.1
2018-May-19 22:57N 40°48' E 001°51'817.3
2018-May-19 22:30N 40°55' E 001°55'917.6
2018-May-19 22:00N 41°03' E 002°01'917.5
2018-May-19 21:30N 41°10' E 002°07'815.9
2018-May-19 21:00N 41°18' E 002°10'3 5.3
2018-May-19 20:30N 41°20' E 002°09'0 0.7
2018-May-19 20:00N 41°20' E 002°09'0 0.0
2018-May-19 19:30N 41°20' E 002°09'0 0.0
2018-May-19 19:00N 41°20' E 002°09'0 0.0
2018-May-19 18:27N 41°20' E 002°09'0 0.0
2018-May-19 18:00N 41°20' E 002°09'0 0.0
2018-May-19 17:30N 41°20' E 002°09'0 0.0
2018-May-19 17:00N 41°20' E 002°09'0 0.0
2018-May-19 16:30N 41°20' E 002°09'0 0.0
2018-May-19 16:00N 41°20' E 002°09'0 0.0
2018-May-19 15:30N 41°20' E 002°09'0 0.0
2018-May-19 15:00N 41°20' E 002°09'0 0.0
2018-May-19 14:30N 41°20' E 002°09'0 0.0
2018-May-19 13:57N 41°20' E 002°09'0 0.0
2018-May-19 13:30N 41°20' E 002°09'0 0.0
2018-May-19 13:00N 41°20' E 002°09'0 0.0
2018-May-19 12:30N 41°20' E 002°09'0 0.0
2018-May-19 12:00N 41°20' E 002°09'0 0.0
2018-May-19 11:30N 41°20' E 002°09'0 0.0
2018-May-19 11:00N 41°20' E 002°09'0 0.0
2018-May-19 10:30N 41°20' E 002°09'0 0.0
2018-May-19 10:00N 41°20' E 002°09'0 0.0
2018-May-19 09:30N 41°20' E 002°09'0 0.0
2018-May-19 09:00N 41°20' E 002°09'0 0.0
2018-May-19 08:30N 41°20' E 002°09'0 0.0
2018-May-19 08:01N 41°20' E 002°09'1 2.1
2018-May-19 07:30N 41°20' E 002°10'511.0
2018-May-19 07:01N 41°15' E 002°11'3 6.6
2018-May-19 06:31N 41°12' E 002°11'0 0.5
2018-May-19 06:01N 41°12' E 002°11'0 0.9
2018-May-19 05:31N 41°12' E 002°12'2 3.7
2018-May-19 05:01N 41°10' E 002°12'3 5.6
2018-May-19 04:30N 41°07' E 002°13'2 3.3
2018-May-19 04:01N 41°05' E 002°13'1 1.4
2018-May-19 03:31N 41°06' E 002°14'1 1.3
2018-May-19 03:01N 41°07' E 002°14'1 1.2
2018-May-19 02:31N 41°07' E 002°14'1 1.5
2018-May-19 02:00N 41°08' E 002°15'1 1.3
2018-May-19 01:30N 41°08' E 002°15'1 1.4
2018-May-19 01:01N 41°09' E 002°15'1 1.3
2018-May-19 00:30N 41°10' E 002°15'1 1.2
2018-May-19 00:00N 41°10' E 002°15'1 1.1
2018-May-18 23:30N 41°11' E 002°15'0 0.9
2018-May-18 23:00N 41°11' E 002°15'0 0.6
2018-May-18 22:31N 41°12' E 002°15'0 0.4
2018-May-18 22:00N 41°12' E 002°15'0 0.2
2018-May-18 21:30N 41°12' E 002°15'1 2.2
2018-May-18 21:01N 41°12' E 002°16'713.2
2018-May-18 20:31N 41°17' E 002°22'918.0
2018-May-18 20:01N 41°20' E 002°33'917.9
2018-May-18 19:30N 41°23' E 002°45'1017.9
2018-May-18 18:57N 41°27' E 002°57'22118.3
2018-May-18 06:52N 42°49' E 007°33'1718.6
2018-May-18 05:58N 42°56' E 007°55'918.9
2018-May-18 05:31N 42°59' E 008°06'918.8
2018-May-18 05:01N 43°02' E 008°18'918.5
2018-May-18 04:30N 43°05' E 008°30'918.2
2018-May-18 04:00N 43°08' E 008°41'918.0
2018-May-18 03:31N 43°10' E 008°53'917.8
2018-May-18 03:00N 43°13' E 009°05'918.0
2018-May-18 02:31N 43°15' E 009°17'917.8
2018-May-18 02:00N 43°18' E 009°29'918.1
2018-May-18 01:31N 43°19' E 009°41'918.5
2018-May-18 01:01N 43°19' E 009°54'816.6
2018-May-18 00:31N 43°23' E 010°04'917.2
2018-May-18 00:01N 43°29' E 010°11'511.0
2018-May-17 23:31N 43°33' E 010°17'1 1.8
2018-May-17 22:59N 43°33' E 010°18'0 0.0
2018-May-17 22:29N 43°33' E 010°18'0 0.0
2018-May-17 21:59N 43°33' E 010°18'0 0.0
2018-May-17 21:29N 43°33' E 010°18'0 0.0
2018-May-17 20:59N 43°33' E 010°18'0 0.0
2018-May-17 20:29N 43°33' E 010°18'0 0.0
2018-May-17 19:47N 43°33' E 010°18'0 0.0
2018-May-17 19:29N 43°33' E 010°18'0 0.0
2018-May-17 18:59N 43°33' E 010°18'0 0.0
2018-May-17 18:29N 43°33' E 010°18'0 0.0
2018-May-17 17:59N 43°33' E 010°18'0 0.0
2018-May-17 17:29N 43°33' E 010°18'0 0.0
2018-May-17 16:56N 43°33' E 010°18'0 0.0
2018-May-17 16:26N 43°33' E 010°18'0 0.0
2018-May-17 15:59N 43°33' E 010°18'0 0.0
2018-May-17 15:29N 43°33' E 010°18'0 0.0
2018-May-17 14:53N 43°33' E 010°18'0 0.0
2018-May-17 14:26N 43°33' E 010°18'0 0.0
2018-May-17 13:59N 43°33' E 010°18'0 0.0
2018-May-17 13:29N 43°33' E 010°18'0 0.0
2018-May-17 12:59N 43°33' E 010°18'0 0.4
2018-May-17 12:30N 43°33' E 010°18'3 7.1
2018-May-17 12:00N 43°30' E 010°15'1 1.9
2018-May-17 11:29N 43°29' E 010°16'0 0.0
2018-May-17 10:58N 43°29' E 010°16'0 0.0
2018-May-17 10:26N 43°29' E 010°16'0 0.0
2018-May-17 09:52N 43°29' E 010°16'0 0.0
2018-May-17 09:29N 43°29' E 010°16'0 0.0
2018-May-17 08:55N 43°29' E 010°16'0 0.0
2018-May-17 08:29N 43°29' E 010°16'0 0.0
2018-May-17 07:59N 43°29' E 010°16'0 0.0
2018-May-17 07:28N 43°29' E 010°16'0 0.0
2018-May-17 06:59N 43°29' E 010°16'0 0.0
2018-May-17 06:25N 43°29' E 010°16'0 0.0
2018-May-17 05:59N 43°29' E 010°16'0 0.0
2018-May-17 05:29N 43°29' E 010°16'0 0.0
2018-May-17 04:59N 43°29' E 010°16'0 0.0
2018-May-17 04:23N 43°29' E 010°16'0 0.0
2018-May-17 03:58N 43°29' E 010°16'0 0.0
2018-May-17 03:28N 43°29' E 010°16'0 0.1
2018-May-17 02:58N 43°29' E 010°16'0 0.0
2018-May-17 02:28N 43°29' E 010°16'0 0.0
2018-May-17 01:58N 43°29' E 010°16'0 0.0
2018-May-17 01:28N 43°29' E 010°16'0 0.0
2018-May-17 00:59N 43°29' E 010°16'0 0.0
2018-May-17 00:29N 43°29' E 010°16'0 0.0
2018-May-16 23:58N 43°29' E 010°16'0 0.0
2018-May-16 23:29N 43°29' E 010°16'0 0.0
2018-May-16 22:59N 43°29' E 010°16'0 0.0
2018-May-16 22:29N 43°29' E 010°16'0 0.0
2018-May-16 21:58N 43°29' E 010°16'0 0.0
2018-May-16 21:28N 43°29' E 010°16'0 0.0
2018-May-16 20:58N 43°29' E 010°16'0 0.0
2018-May-16 20:29N 43°29' E 010°16'0 0.0
2018-May-16 19:58N 43°29' E 010°16'0 0.0
2018-May-16 19:28N 43°29' E 010°16'0 0.0
2018-May-16 18:59N 43°29' E 010°16'0 0.0
2018-May-16 18:28N 43°29' E 010°16'0 0.0
2018-May-16 17:58N 43°29' E 010°16'0 0.0
2018-May-16 17:28N 43°29' E 010°16'0 0.0
2018-May-16 16:59N 43°29' E 010°16'0 0.0
2018-May-16 16:25N 43°29' E 010°16'0 0.0
2018-May-16 15:55N 43°29' E 010°16'0 0.0
2018-May-16 15:29N 43°29' E 010°16'0 0.0
2018-May-16 14:58N 43°29' E 010°16'0 0.0
2018-May-16 14:29N 43°29' E 010°16'0 0.0
2018-May-16 13:59N 43°29' E 010°16'0 0.0
2018-May-16 13:28N 43°29' E 010°16'0 0.0
2018-May-16 12:58N 43°29' E 010°16'0 0.0
2018-May-16 12:29N 43°29' E 010°16'0 0.0
2018-May-16 11:55N 43°29' E 010°16'0 0.0
2018-May-16 11:29N 43°29' E 010°16'0 0.0
2018-May-16 10:58N 43°29' E 010°16'0 0.0
2018-May-16 10:28N 43°29' E 010°16'0 0.0
2018-May-16 09:58N 43°29' E 010°16'0 0.0
2018-May-16 09:28N 43°29' E 010°16'0 0.0
2018-May-16 08:58N 43°29' E 010°16'0 0.1
2018-May-16 08:29N 43°29' E 010°16'1 1.4
2018-May-16 08:01N 43°29' E 010°15'3 6.4
2018-May-16 07:30N 43°26' E 010°13'713.2
2018-May-16 07:01N 43°20' E 010°09'612.9
2018-May-16 06:31N 43°14' E 010°06'612.8
2018-May-16 06:00N 43°08' E 010°04'612.9
2018-May-16 05:30N 43°02' E 010°01'35214.6
2018-May-15 05:24N 37°26' E 012°20'714.8
2018-May-15 04:54N 37°21' E 012°27'3315.5
2018-May-15 02:48N 37°07' E 013°03'515.1
2018-May-15 02:28N 37°04' E 013°09'715.2
2018-May-15 02:00N 37°01' E 013°17'815.3
2018-May-15 01:30N 36°57' E 013°25'1215.1
2018-May-15 00:42N 36°51' E 013°39'315.4
2018-May-15 00:30N 36°50' E 013°42'815.4
2018-May-14 23:59N 36°46' E 013°51'715.3
2018-May-14 23:30N 36°43' E 013°59'815.0
2018-May-14 23:00N 36°39' E 014°07'714.9
2018-May-14 22:30N 36°36' E 014°15'814.9
2018-May-14 21:58N 36°32' E 014°24'715.1
2018-May-14 21:30N 36°29' E 014°32'815.1
2018-May-14 21:00N 36°25' E 014°40'715.0
2018-May-14 20:30N 36°23' E 014°49'714.6
2018-May-14 20:00N 36°21' E 014°58'714.0
2018-May-14 19:30N 36°19' E 015°06'2514.7
2018-May-14 17:47N 36°11' E 015°36'515.0
2018-May-14 17:28N 36°10' E 015°42'715.0
2018-May-14 17:00N 36°08' E 015°50'714.9
2018-May-14 16:30N 36°06' E 015°59'815.2
2018-May-14 16:00N 36°03' E 016°08'  

Dump ship's entire track history